Time;durP1;ratioP1;P1;durP2;ratioP2;P2;SDS_P1;SDS_P2;PMS_P1;PMS_P2;Temp;Humidity;BMP_temperature;BMP_pressure;BME280_temperature;BME280_humidity;BME280_pressure;Samples;Min_cycle;Max_cycle;Signal;HPM_P1;HPM_P2
2022/03/03 00:02:12;;;;;;;15.60;10.65;;;2.80;50.90;;;;;;5030376;28;20196;-68
2022/03/03 00:04:39;;;;;;;13.57;8.77;;;2.70;50.40;;;;;;5034319;28;20287;-68
2022/03/03 00:07:06;;;;;;;14.20;9.52;;;2.60;50.30;;;;;;5018765;28;20219;-68
2022/03/03 00:09:35;;;;;;;15.25;10.38;;;2.60;50.20;;;;;;5014477;28;20199;-68
2022/03/03 00:12:02;;;;;;;13.93;10.10;;;2.50;50.20;;;;;;5027119;28;20222;-68
2022/03/03 00:14:29;;;;;;;16.63;11.20;;;2.50;50.50;;;;;;5034448;28;20231;-68
2022/03/03 00:16:56;;;;;;;18.50;11.23;;;2.40;50.50;;;;;;5016827;28;20188;-68
2022/03/03 00:19:23;;;;;;;15.00;9.88;;;2.40;50.50;;;;;;5014215;28;20246;-69
2022/03/03 00:21:50;;;;;;;21.20;14.85;;;2.40;51.10;;;;;;5013985;28;20196;-68
2022/03/03 00:24:17;;;;;;;15.23;11.15;;;2.30;51.70;;;;;;5014040;28;20560;-67
2022/03/03 00:26:45;;;;;;;14.40;10.20;;;2.30;51.80;;;;;;5032114;28;20221;-68
2022/03/03 00:29:13;;;;;;;15.85;11.18;;;2.20;51.20;;;;;;5033657;28;20202;-68
2022/03/03 00:31:40;;;;;;;13.45;9.73;;;2.00;50.90;;;;;;5015928;28;20190;-68
2022/03/03 00:34:07;;;;;;;15.25;9.68;;;1.90;51.60;;;;;;5013426;28;20553;-68
2022/03/03 00:36:35;;;;;;;14.82;9.70;;;1.80;51.40;;;;;;5029502;28;20191;-68
2022/03/03 00:39:03;;;;;;;16.75;9.85;;;1.70;52.00;;;;;;5033375;28;20191;-68
2022/03/03 00:41:30;;;;;;;13.30;9.95;;;1.70;52.20;;;;;;5016740;28;20192;-68
2022/03/03 00:43:59;;;;;;;14.50;9.80;;;1.70;52.30;;;;;;5015431;28;20224;-68
2022/03/03 00:46:26;;;;;;;16.20;10.05;;;1.60;52.10;;;;;;5033083;28;20228;-68
2022/03/03 00:48:55;;;;;;;15.40;9.93;;;1.50;52.70;;;;;;5030945;28;20290;-71
2022/03/03 00:51:22;;;;;;;14.10;9.82;;;1.60;53.20;;;;;;5013182;28;20200;-68
2022/03/03 00:53:51;;;;;;;21.50;9.65;;;1.60;53.60;;;;;;5013078;28;20203;-68
2022/03/03 00:56:18;;;;;;;12.43;9.02;;;1.60;53.50;;;;;;5032619;28;20291;-68
2022/03/03 00:58:46;;;;;;;18.13;11.25;;;1.60;53.20;;;;;;5032524;28;20602;-68
2022/03/03 01:01:15;;;;;;;16.48;9.75;;;1.50;52.90;;;;;;5012969;28;20227;-68
2022/03/03 01:03:43;;;;;;;15.57;10.88;;;1.50;52.90;;;;;;5012632;28;20203;-68
2022/03/03 01:06:10;;;;;;;14.43;9.32;;;1.40;53.40;;;;;;5030358;28;20325;-68
2022/03/03 01:08:38;;;;;;;16.65;10.88;;;1.40;53.70;;;;;;5025715;28;20180;-68
2022/03/03 01:11:06;;;;;;;16.50;11.38;;;1.30;53.80;;;;;;5012583;28;20263;-68
2022/03/03 01:13:34;;;;;;;20.42;10.43;;;1.40;54.20;;;;;;5016408;28;20215;-68
2022/03/03 01:16:02;;;;;;;17.23;11.95;;;1.40;53.60;;;;;;5032086;28;20524;-68
2022/03/03 01:18:31;;;;;;;15.32;11.55;;;1.30;54.30;;;;;;5027752;28;20180;-68
2022/03/03 01:20:58;;;;;;;20.45;11.88;;;1.30;54.80;;;;;;5018361;28;20642;-68
2022/03/03 01:23:25;;;;;;;20.00;10.98;;;1.30;54.90;;;;;;5029378;28;20241;-69
2022/03/03 01:25:53;;;;;;;23.48;12.25;;;1.30;54.90;;;;;;5012246;28;20191;-68
2022/03/03 01:28:20;;;;;;;15.00;10.27;;;1.30;55.10;;;;;;5012980;28;20573;-68
2022/03/03 01:30:47;;;;;;;27.88;11.57;;;1.30;55.00;;;;;;5031918;28;20201;-68
2022/03/03 01:33:14;;;;;;;18.42;12.18;;;1.30;54.90;;;;;;5022162;28;20271;-68
2022/03/03 01:35:43;;;;;;;16.17;11.32;;;1.30;55.10;;;;;;5011673;28;20238;-68
2022/03/03 01:38:10;;;;;;;20.52;11.27;;;1.20;55.20;;;;;;5013488;28;20552;-68
2022/03/03 01:40:38;;;;;;;21.85;12.95;;;1.20;55.00;;;;;;5011789;28;20599;-68
2022/03/03 01:43:06;;;;;;;22.67;13.38;;;1.20;55.00;;;;;;5017717;28;20226;-68
2022/03/03 01:45:33;;;;;;;16.00;11.40;;;1.20;55.00;;;;;;5031344;28;20203;-68
2022/03/03 01:48:01;;;;;;;22.65;12.40;;;1.10;55.10;;;;;;5025195;28;20212;-68
2022/03/03 01:50:28;;;;;;;18.98;11.50;;;1.10;54.80;;;;;;5011743;28;20195;-68
2022/03/03 01:52:57;;;;;;;15.75;11.82;;;1.10;54.90;;;;;;5014873;28;20245;-69
2022/03/03 01:55:25;;;;;;;17.70;11.55;;;1.10;55.10;;;;;;5029024;28;20200;-67
2022/03/03 01:57:53;;;;;;;25.05;14.32;;;1.10;54.90;;;;;;5027456;28;20529;-68
2022/03/03 02:00:20;;;;;;;25.50;15.98;;;1.10;55.20;;;;;;5011201;28;20196;-68
2022/03/03 02:02:52;;;;;;;25.17;17.13;;;1.10;54.80;;;;;;5018765;28;20274;-68
2022/03/03 02:05:19;;;;;;;21.10;12.32;;;1.10;54.80;;;;;;5031188;28;20199;-67
2022/03/03 02:07:46;;;;;;;15.30;12.05;;;1.10;54.90;;;;;;5022824;28;20239;-68
2022/03/03 02:10:15;;;;;;;16.77;10.38;;;1.00;54.50;;;;;;5010846;28;20293;-68
2022/03/03 02:12:42;;;;;;;16.30;11.70;;;0.90;54.00;;;;;;5016619;28;20226;-68
2022/03/03 02:15:18;;;;;;;15.98;10.48;;;0.80;54.40;;;;;;5030737;28;20223;-68
2022/03/03 02:17:45;;;;;;;13.23;9.18;;;0.80;54.80;;;;;;5024081;28;20191;-68
2022/03/03 02:20:22;;;;;;;14.20;8.20;;;0.70;53.80;;;;;;5010695;28;20246;-68
2022/03/03 02:22:49;;;;;;;17.15;9.10;;;0.60;52.70;;;;;;5016310;28;20508;-68
2022/03/03 02:25:17;;;;;;;17.25;9.90;;;0.50;52.30;;;;;;5030481;28;20272;-67
2022/03/03 02:27:44;;;;;;;16.05;9.07;;;0.40;53.10;;;;;;5024854;28;20245;-67
2022/03/03 02:30:12;;;;;;;18.50;9.32;;;0.30;52.80;;;;;;5010839;28;20202;-67
2022/03/03 02:32:40;;;;;;;16.52;9.27;;;0.20;53.80;;;;;;5011257;28;20483;-67
2022/03/03 02:35:08;;;;;;;19.80;10.68;;;0.20;54.70;;;;;;5010592;28;20250;-67
2022/03/03 02:37:39;;;;;;;16.30;10.45;;;0.20;55.70;;;;;;5013914;28;20187;-68
2022/03/03 02:40:08;;;;;;;19.30;10.82;;;0.10;56.10;;;;;;5030435;28;20202;-67
2022/03/03 02:42:36;;;;;;;16.20;9.40;;;0.10;56.50;;;;;;5025962;28;20187;-67
2022/03/03 02:45:04;;;;;;;15.32;9.48;;;0.00;56.50;;;;;;5010450;28;20592;-68
2022/03/03 02:47:31;;;;;;;18.38;10.95;;;0.00;55.70;;;;;;5019487;28;20225;-67
2022/03/03 02:49:59;;;;;;;14.80;9.20;;;0.00;56.10;;;;;;5029805;28;20199;-67
2022/03/03 02:52:26;;;;;;;19.65;10.57;;;0.00;56.70;;;;;;5020609;28;20191;-67
2022/03/03 02:54:54;;;;;;;17.65;12.10;;;0.00;56.50;;;;;;5010144;28;20321;-67
2022/03/03 03:00:08;;;;;;;20.23;10.77;;;-0.10;57.20;;;;;;5010111;28;20202;-68
2022/03/03 03:02:35;;;;;;;17.80;10.73;;;-0.20;58.00;;;;;;5018265;28;20191;-68
2022/03/03 03:05:02;;;;;;;18.25;11.82;;;-0.10;58.50;;;;;;5030407;28;20190;-68
2022/03/03 03:07:29;;;;;;;23.15;11.18;;;-0.10;58.00;;;;;;5032868;28;20311;-68
2022/03/03 03:09:57;;;;;;;19.05;11.68;;;-0.10;57.50;;;;;;5033677;28;20517;-68
2022/03/03 03:12:24;;;;;;;22.35;11.70;;;-0.10;57.20;;;;;;5031835;28;20613;-68
2022/03/03 03:14:52;;;;;;;17.77;10.23;;;-0.10;57.20;;;;;;5034115;28;20238;-67
2022/03/03 03:17:19;;;;;;;17.25;10.52;;;-0.20;57.40;;;;;;5031941;28;20290;-67
2022/03/03 03:19:46;;;;;;;19.67;10.43;;;-0.20;57.60;;;;;;5033624;28;20287;-67
2022/03/03 03:22:13;;;;;;;17.50;11.15;;;-0.30;58.10;;;;;;5022702;28;20187;-68
2022/03/03 03:24:40;;;;;;;16.27;12.45;;;-0.20;58.50;;;;;;5023631;28;20192;-67
2022/03/03 03:27:09;;;;;;;16.98;9.35;;;-0.30;58.40;;;;;;5013191;28;20227;-68
2022/03/03 03:29:36;;;;;;;14.05;10.43;;;-0.40;59.00;;;;;;5017141;28;20198;-67
2022/03/03 03:32:04;;;;;;;19.83;9.90;;;-0.50;59.00;;;;;;5033382;28;20547;-68
2022/03/03 03:34:32;;;;;;;16.83;9.23;;;-0.40;59.30;;;;;;5030290;28;20291;-68
2022/03/03 03:36:59;;;;;;;16.05;10.85;;;-0.40;59.50;;;;;;5013662;28;20198;-67
2022/03/03 03:39:26;;;;;;;14.43;9.85;;;-0.40;59.70;;;;;;5014603;28;20211;-67
2022/03/03 03:41:53;;;;;;;15.32;9.65;;;-0.40;59.70;;;;;;5039104;28;20562;-68
2022/03/03 03:44:22;;;;;;;13.05;9.15;;;-0.30;59.80;;;;;;5051035;28;20202;-68
2022/03/03 03:46:49;;;;;;;14.98;10.30;;;-0.30;58.80;;;;;;5013165;28;20224;-67
2022/03/03 03:49:16;;;;;;;15.57;10.98;;;-0.30;58.10;;;;;;5020740;28;20219;-75
2022/03/03 03:51:43;;;;;;;15.55;8.88;;;-0.30;58.20;;;;;;5032838;28;20203;-67
2022/03/03 03:54:10;;;;;;;16.23;10.52;;;-0.30;58.80;;;;;;5026084;28;20254;-67
2022/03/03 03:56:37;;;;;;;15.88;10.02;;;-0.30;58.50;;;;;;5023700;28;20190;-67
2022/03/03 03:59:04;;;;;;;15.70;9.20;;;-0.30;58.30;;;;;;5027303;28;20657;-67
2022/03/03 04:01:32;;;;;;;19.92;10.18;;;-0.30;58.10;;;;;;5013211;28;20192;-67
2022/03/03 04:03:59;;;;;;;14.38;9.80;;;-0.30;57.90;;;;;;5017094;28;20542;-68
2022/03/03 04:06:27;;;;;;;13.57;8.93;;;-0.40;58.00;;;;;;5033124;28;20207;-68
2022/03/03 04:08:54;;;;;;;16.38;8.70;;;-0.40;57.80;;;;;;5029768;28;20238;-67
2022/03/03 04:11:21;;;;;;;17.83;10.65;;;-0.50;58.00;;;;;;5013463;28;20196;-67
2022/03/03 04:13:49;;;;;;;14.85;11.15;;;-0.50;58.30;;;;;;5013741;28;20562;-68
2022/03/03 04:16:15;;;;;;;15.70;10.45;;;-0.50;58.40;;;;;;5032710;28;20210;-68
2022/03/03 04:18:44;;;;;;;19.23;10.23;;;-0.50;58.40;;;;;;5032226;28;20195;-69
2022/03/03 04:21:11;;;;;;;15.68;10.20;;;-0.60;58.70;;;;;;5013233;28;20493;-67
2022/03/03 04:23:38;;;;;;;15.05;10.20;;;-0.60;58.80;;;;;;5012849;28;20294;-67
2022/03/03 04:26:05;;;;;;;13.18;9.55;;;-0.60;58.60;;;;;;5031651;28;20655;-67
2022/03/03 04:28:32;;;;;;;16.92;11.10;;;-0.60;58.50;;;;;;5032369;28;20236;-68
2022/03/03 04:30:59;;;;;;;19.08;10.07;;;-0.70;58.10;;;;;;5014740;28;20187;-68
2022/03/03 04:33:27;;;;;;;12.77;10.20;;;-0.80;58.30;;;;;;5012892;28;20525;-67
2022/03/03 04:35:56;;;;;;;14.52;9.52;;;-0.80;59.10;;;;;;5028569;28;20245;-68
2022/03/03 04:38:24;;;;;;;14.65;10.35;;;-0.90;59.70;;;;;;5032524;28;20191;-67
2022/03/03 04:40:51;;;;;;;15.52;10.20;;;-1.00;60.50;;;;;;5016639;28;20203;-67
2022/03/03 04:43:19;;;;;;;14.98;10.63;;;-1.00;61.60;;;;;;5015152;28;20626;-67
2022/03/03 04:45:46;;;;;;;15.63;9.93;;;-1.10;62.00;;;;;;5032136;28;20195;-68
2022/03/03 04:48:13;;;;;;;15.13;9.40;;;-1.00;62.20;;;;;;5029316;28;20225;-67
2022/03/03 04:50:40;;;;;;;13.45;9.45;;;-1.00;61.60;;;;;;5012308;28;20188;-68
2022/03/03 04:53:09;;;;;;;16.30;9.88;;;-0.90;61.20;;;;;;5012107;28;20191;-67
2022/03/03 04:55:36;;;;;;;21.27;13.05;;;-0.90;60.90;;;;;;5031941;28;20286;-68
2022/03/03 04:58:03;;;;;;;15.55;9.10;;;-0.90;60.90;;;;;;5031921;28;20191;-68
2022/03/03 05:00:30;;;;;;;15.60;10.30;;;-0.90;60.10;;;;;;5012063;28;20188;-68
2022/03/03 05:02:57;;;;;;;11.13;8.68;;;-0.90;60.30;;;;;;5011821;28;20257;-68
2022/03/03 05:05:24;;;;;;;12.60;9.20;;;-0.90;60.10;;;;;;5029975;28;20183;-67
2022/03/03 05:07:51;;;;;;;16.33;9.98;;;-0.90;59.80;;;;;;5032017;28;20312;-67
2022/03/03 05:10:20;;;;;;;14.55;8.52;;;-0.90;59.50;;;;;;5014525;28;20207;-67
2022/03/03 05:12:47;;;;;;;14.45;9.23;;;-0.90;59.90;;;;;;5012207;28;20199;-67
2022/03/03 05:15:14;;;;;;;14.20;9.23;;;-0.90;59.40;;;;;;5027015;28;20993;-68
2022/03/03 05:17:41;;;;;;;13.57;9.20;;;-0.90;58.50;;;;;;5031761;28;20248;-67
2022/03/03 05:20:09;;;;;;;13.00;8.90;;;-1.00;58.30;;;;;;5016949;28;20194;-67
2022/03/03 05:22:36;;;;;;;16.17;9.85;;;-1.00;58.60;;;;;;5012035;28;20211;-68
2022/03/03 05:25:03;;;;;;;11.48;8.77;;;-1.00;58.80;;;;;;5024509;28;20194;-68
2022/03/03 05:27:33;;;;;;;19.85;10.95;;;-1.00;58.30;;;;;;5027109;28;20233;-67
2022/03/03 05:30:00;;;;;;;16.65;9.35;;;-1.00;58.20;;;;;;5011839;28;20194;-67
2022/03/03 05:32:27;;;;;;;17.73;10.00;;;-1.00;58.60;;;;;;5013617;28;20184;-67
2022/03/03 05:34:54;;;;;;;18.63;9.73;;;-1.00;58.90;;;;;;5031118;28;20184;-67
2022/03/03 05:37:24;;;;;;;14.93;8.98;;;-1.00;58.80;;;;;;5029745;28;20214;-68
2022/03/03 05:39:51;;;;;;;14.38;8.98;;;-1.00;58.80;;;;;;5011716;28;20196;-67
2022/03/03 05:42:20;;;;;;;13.70;8.77;;;-1.00;58.80;;;;;;5011453;28;20191;-68
2022/03/03 05:44:48;;;;;;;19.65;10.82;;;-1.10;58.30;;;;;;5031944;28;20187;-67
2022/03/03 05:47:16;;;;;;;12.25;10.43;;;-1.20;57.90;;;;;;5031713;28;20217;-73
2022/03/03 05:49:45;;;;;;;16.38;9.40;;;-1.20;58.10;;;;;;5029182;28;20243;-68
2022/03/03 05:52:13;;;;;;;13.32;9.25;;;-1.20;58.00;;;;;;5011327;28;20196;-67
2022/03/03 05:54:41;;;;;;;16.55;10.40;;;-1.20;58.50;;;;;;5029560;28;20199;-68
2022/03/03 05:57:15;;;;;;;12.68;10.05;;;-1.20;58.70;;;;;;5030886;28;20195;-68
2022/03/03 05:59:42;;;;;;;15.20;10.57;;;-1.20;58.50;;;;;;5012936;28;20221;-68
2022/03/03 06:02:12;;;;;;;19.48;9.52;;;-1.20;58.10;;;;;;5011410;28;20290;-67
2022/03/03 06:04:39;;;;;;;17.38;9.15;;;-1.30;57.90;;;;;;5028083;28;20274;-67
2022/03/03 06:07:09;;;;;;;13.77;8.70;;;-1.40;57.70;;;;;;5025309;28;20343;-67
2022/03/03 06:09:37;;;;;;;16.17;8.25;;;-1.50;58.00;;;;;;5030837;28;20269;-68
2022/03/03 06:12:06;;;;;;;15.90;9.90;;;-1.50;58.40;;;;;;5021590;28;20219;-68
2022/03/03 06:14:48;;;;;;;13.85;9.63;;;-1.50;58.60;;;;;;5010469;28;20226;-68
2022/03/03 06:17:20;;;;;;;15.85;9.95;;;-1.40;58.90;;;;;;5021467;28;20548;-69
2022/03/03 06:19:49;;;;;;;16.58;9.57;;;-1.40;59.40;;;;;;5030545;28;20227;-67
2022/03/03 06:22:17;;;;;;;12.23;9.15;;;-1.40;59.50;;;;;;5020549;28;20199;-67
2022/03/03 06:24:44;;;;;;;16.10;10.25;;;-1.40;59.50;;;;;;5010851;28;20202;-69
2022/03/03 06:27:11;;;;;;;12.60;8.15;;;-1.40;59.70;;;;;;5018797;28;20245;-67
2022/03/03 06:29:39;;;;;;;14.63;10.02;;;-1.30;60.80;;;;;;5030830;28;20245;-67
2022/03/03 06:32:07;;;;;;;17.83;10.63;;;-1.20;61.40;;;;;;5024627;28;20198;-67
2022/03/03 06:34:36;;;;;;;13.88;9.88;;;-1.00;61.30;;;;;;5028006;28;20659;-67
2022/03/03 06:37:04;;;;;;;15.48;10.27;;;-0.90;60.40;;;;;;5023881;28;20240;-69
2022/03/03 06:39:32;;;;;;;25.15;14.55;;;-0.70;60.30;;;;;;5029808;28;20203;-67
2022/03/03 06:41:59;;;;;;;26.88;13.02;;;-0.50;60.30;;;;;;5024616;28;20198;-68
2022/03/03 06:44:26;;;;;;;20.80;11.82;;;-0.30;60.20;;;;;;5027073;28;20213;-68
2022/03/03 06:46:53;;;;;;;15.50;11.40;;;0.00;60.00;;;;;;5029264;28;20195;-67
2022/03/03 06:49:20;;;;;;;17.15;10.98;;;0.30;59.40;;;;;;5028171;28;20218;-67
2022/03/03 06:51:55;;;;;;;21.00;11.23;;;0.60;58.70;;;;;;5029288;28;20253;-67
2022/03/03 06:54:23;;;;;;;18.38;12.35;;;0.80;58.20;;;;;;5020512;28;20194;-67
2022/03/03 06:56:51;;;;;;;17.65;13.45;;;1.20;58.40;;;;;;5025638;28;20244;-68
2022/03/03 06:59:21;;;;;;;21.15;12.90;;;1.70;57.60;;;;;;5025361;28;20197;-68
2022/03/03 07:01:49;;;;;;;16.33;10.93;;;2.30;57.10;;;;;;5027301;28;20202;-68
2022/03/03 07:04:17;;;;;;;18.85;9.65;;;2.90;55.30;;;;;;5028789;28;20206;-68
2022/03/03 07:06:44;;;;;;;16.20;10.57;;;3.50;54.40;;;;;;5030117;28;20294;-68
2022/03/03 07:09:13;;;;;;;18.45;10.35;;;4.10;52.90;;;;;;5027147;28;20211;-69
2022/03/03 07:11:44;;;;;;;16.85;9.55;;;;;;;;;;5029607;28;20257;-69
2022/03/03 07:14:11;;;;;;;15.32;10.27;;;;;;;;;;5029279;28;20218;-68
2022/03/03 07:16:42;;;;;;;13.68;9.77;;;4.60;50.30;;;;;;5029880;28;20257;-69
2022/03/03 07:19:21;;;;;;;16.17;10.32;;;6.80;46.30;;;;;;5030414;28;20601;-67
2022/03/03 07:22:03;;;;;;;14.80;10.50;;;7.60;43.60;;;;;;5029025;28;20213;-70
2022/03/03 07:24:34;;;;;;;11.18;9.20;;;8.50;41.00;;;;;;5027818;28;20229;-68
2022/03/03 07:27:04;;;;;;;13.10;9.20;;;9.40;38.60;;;;;;5025266;28;20190;-69
2022/03/03 07:29:34;;;;;;;13.75;10.00;;;10.30;35.70;;;;;;5026696;28;20218;-69
2022/03/03 07:32:09;;;;;;;13.90;8.63;;;11.10;34.20;;;;;;5024134;28;20187;-69
2022/03/03 07:34:39;;;;;;;11.20;9.27;;;12.20;31.60;;;;;;5020939;28;20700;-69
2022/03/03 07:37:11;;;;;;;16.75;12.18;;;13.20;30.20;;;;;;5029116;28;20317;-69
2022/03/03 07:39:48;;;;;;;15.40;11.50;;;14.30;28.80;;;;;;5023611;28;20219;-70
2022/03/03 07:42:18;;;;;;;14.98;10.00;;;15.10;27.00;;;;;;5025373;28;20658;-69
2022/03/03 07:44:46;;;;;;;13.15;9.73;;;16.10;25.60;;;;;;5028166;28;20254;-70
2022/03/03 07:47:13;;;;;;;16.00;11.18;;;16.80;25.00;;;;;;5026374;28;20191;-69
2022/03/03 07:49:41;;;;;;;14.35;10.85;;;17.20;24.30;;;;;;5023835;28;20215;-67
2022/03/03 07:52:09;;;;;;;12.15;10.38;;;17.90;23.90;;;;;;5031554;28;20229;-67
2022/03/03 07:54:38;;;;;;;13.55;10.15;;;18.90;22.90;;;;;;5030909;28;20253;-70
2022/03/03 07:57:09;;;;;;;13.93;10.13;;;19.90;21.50;;;;;;5029059;28;20194;-67
2022/03/03 07:59:38;;;;;;;12.38;9.30;;;20.80;20.50;;;;;;5029601;28;20233;-67
2022/03/03 08:02:06;;;;;;;11.60;8.80;;;21.60;20.10;;;;;;5032154;28;20269;-68
2022/03/03 08:04:35;;;;;;;12.27;8.10;;;22.40;18.80;;;;;;5024974;28;20447;-68
2022/03/03 08:07:06;;;;;;;13.10;9.50;;;23.00;18.60;;;;;;5029025;28;20445;-67
2022/03/03 08:09:36;;;;;;;10.07;9.07;;;23.60;17.70;;;;;;5027259;28;21000;-69
2022/03/03 08:12:07;;;;;;;10.10;7.83;;;24.50;17.80;;;;;;5025235;28;20457;-68
2022/03/03 08:14:35;;;;;;;11.70;8.40;;;25.10;16.00;;;;;;5027848;28;20469;-67
2022/03/03 08:17:03;;;;;;;10.23;8.07;;;25.80;15.80;;;;;;5027832;28;20937;-68
2022/03/03 08:19:31;;;;;;;9.73;8.43;;;26.60;16.00;;;;;;5028116;28;20488;-72
2022/03/03 08:21:58;;;;;;;12.47;9.73;;;27.60;15.50;;;;;;5024324;28;20434;-68
2022/03/03 08:24:27;;;;;;;10.03;7.50;;;28.40;14.50;;;;;;5027795;28;20962;-68
2022/03/03 08:26:56;;;;;;;12.77;9.70;;;28.80;14.00;;;;;;5029185;28;20461;-69
2022/03/03 08:29:24;;;;;;;16.50;14.80;;;29.50;14.20;;;;;;5030736;28;20559;-68
2022/03/03 08:31:57;;;;;;;10.40;9.13;;;30.40;13.70;;;;;;5028744;28;20430;-68
2022/03/03 08:34:34;;;;;;;12.60;10.33;;;31.00;12.50;;;;;;5028065;28;20446;-68
2022/03/03 08:37:09;;;;;;;11.60;8.97;;;31.50;13.10;;;;;;5032379;28;20528;-68
2022/03/03 08:39:39;;;;;;;16.13;8.47;;;32.30;11.50;;;;;;5031705;28;20444;-68
2022/03/03 08:42:09;;;;;;;11.80;9.40;;;32.90;11.20;;;;;;5032339;28;20841;-68
2022/03/03 08:44:41;;;;;;;11.50;9.80;;;33.50;11.30;;;;;;5030856;28;20503;-67
2022/03/03 08:47:08;;;;;;;12.93;7.60;;;34.10;11.00;;;;;;5029447;28;20507;-68
2022/03/03 08:49:39;;;;;;;10.10;6.17;;;34.80;11.10;;;;;;5026269;28;20475;-68
2022/03/03 08:52:07;;;;;;;7.60;6.10;;;35.30;10.90;;;;;;5028500;28;20779;-68
2022/03/03 08:54:35;;;;;;;8.47;5.60;;;36.00;10.10;;;;;;5030085;28;20440;-69
2022/03/03 08:57:02;;;;;;;8.67;5.67;;;36.40;9.80;;;;;;5027746;28;20811;-72
2022/03/03 08:59:29;;;;;;;9.30;5.80;;;36.70;8.90;;;;;;5028541;28;20502;-68
2022/03/03 09:01:58;;;;;;;8.43;5.33;;;36.90;9.20;;;;;;5031566;28;20517;-75
2022/03/03 09:04:25;;;;;;;7.37;5.50;;;37.60;8.90;;;;;;5030740;28;20936;-68
2022/03/03 09:06:52;;;;;;;6.43;5.80;;;38.00;7.70;;;;;;5027783;28;20470;-69
2022/03/03 09:09:19;;;;;;;5.70;4.90;;;38.50;7.60;;;;;;5031632;28;20488;-68
2022/03/03 09:11:46;;;;;;;6.27;4.80;;;39.00;7.10;;;;;;5026604;28;20952;-70
2022/03/03 09:14:13;;;;;;;5.80;5.20;;;39.50;6.40;;;;;;5027236;28;20466;-69
2022/03/03 09:16:41;;;;;;;5.73;5.13;;;39.80;6.30;;;;;;5027195;28;20439;-68
2022/03/03 09:19:09;;;;;;;7.50;5.90;;;40.10;6.30;;;;;;5031899;28;20824;-68
2022/03/03 09:21:36;;;;;;;7.90;5.60;;;40.50;6.50;;;;;;5029429;28;20523;-69
2022/03/03 09:24:03;;;;;;;9.33;5.70;;;40.90;5.90;;;;;;5028076;28;20446;-69
2022/03/03 09:26:31;;;;;;;7.07;5.50;;;41.10;6.00;;;;;;5029883;28;20445;-69
2022/03/03 09:28:58;;;;;;;6.60;5.50;;;41.70;5.50;;;;;;5031309;28;20442;-69
2022/03/03 09:31:30;;;;;;;6.53;5.90;;;42.10;5.50;;;;;;5027610;28;20439;-69
2022/03/03 09:33:57;;;;;;;5.50;5.00;;;42.50;5.50;;;;;;5031110;28;20434;-69
2022/03/03 09:36:26;;;;;;;5.57;5.07;;;43.00;5.10;;;;;;5032126;28;20900;-70
2022/03/03 09:38:53;;;;;;;6.63;5.50;;;43.30;3.20;;;;;;5026890;28;20481;-70
2022/03/03 09:41:20;;;;;;;8.30;6.00;;;43.60;4.60;;;;;;5031360;28;20855;-69
2022/03/03 09:43:47;;;;;;;8.43;5.67;;;44.00;4.10;;;;;;5030906;28;20974;-70
2022/03/03 09:46:14;;;;;;;6.03;5.30;;;44.20;3.50;;;;;;5027682;28;20438;-69
2022/03/03 09:48:42;;;;;;;7.13;5.73;;;44.50;4.20;;;;;;5029814;28;20563;-70
2022/03/03 09:51:09;;;;;;;10.00;5.80;;;44.90;4.00;;;;;;5029777;28;20860;-69
2022/03/03 09:53:40;;;;;;;6.53;5.37;;;45.30;3.70;;;;;;5029533;28;20446;-69
2022/03/03 09:56:07;;;;;;;6.73;5.50;;;45.30;3.00;;;;;;5030938;28;20850;-70
2022/03/03 09:58:35;;;;;;;6.47;5.23;;;45.10;3.30;;;;;;5023153;28;20851;-69
2022/03/03 10:01:02;;;;;;;5.70;5.20;;;44.40;3.50;;;;;;5030789;28;20484;-70
2022/03/03 10:03:33;;;;;;;8.40;5.30;;;43.90;3.90;;;;;;5030575;28;20449;-69
2022/03/03 10:06:00;;;;;;;11.20;6.07;;;43.90;3.10;;;;;;5028526;28;20448;-69
2022/03/03 10:08:29;;;;;;;7.07;5.83;;;44.40;3.30;;;;;;5030543;28;20434;-69
2022/03/03 10:11:00;;;;;;;7.23;5.73;;;44.70;3.00;;;;;;5031056;28;20803;-69
2022/03/03 10:13:29;;;;;;;7.13;6.43;;;44.80;3.00;;;;;;5030774;28;20520;-69
2022/03/03 10:15:59;;;;;;;7.00;6.40;;;45.40;2.90;;;;;;5030529;28;20487;-69
2022/03/03 10:18:27;;;;;;;7.87;6.50;;;45.90;3.50;;;;;;5031519;28;20790;-69
2022/03/03 10:20:56;;;;;;;9.30;6.90;;;46.40;2.80;;;;;;5030118;28;20485;-70
2022/03/03 10:23:27;;;;;;;7.20;6.50;;;46.90;3.10;;;;;;5027569;28;20447;-69
2022/03/03 10:25:55;;;;;;;6.80;6.10;;;47.50;2.50;;;;;;5030530;28;20441;-69
2022/03/03 10:28:25;;;;;;;7.47;6.77;;;47.80;2.70;;;;;;5031459;28;20988;-69
2022/03/03 10:31:01;;;;;;;8.03;7.33;;;48.10;2.50;;;;;;5028983;28;20437;-73
2022/03/03 10:33:30;;;;;;;8.20;7.40;;;48.10;2.40;;;;;;5029312;28;20437;-69
2022/03/03 10:36:11;;;;;;;7.67;7.03;;;48.30;2.20;;;;;;5029659;28;20963;-69
2022/03/03 10:38:51;;;;;;;8.27;7.53;;;48.30;2.40;;;;;;5031104;28;20448;-68
2022/03/03 10:41:33;;;;;;;8.63;7.23;;;48.40;2.10;;;;;;5026802;28;20444;-69
2022/03/03 10:44:03;;;;;;;9.57;8.50;;;48.40;2.30;;;;;;5030476;28;20441;-69
2022/03/03 10:46:31;;;;;;;8.83;8.07;;;48.40;2.40;;;;;;5023565;28;20802;-69
2022/03/03 10:48:59;;;;;;;9.83;8.80;;;48.30;2.60;;;;;;5019417;28;20485;-69
2022/03/03 10:51:26;;;;;;;9.70;8.63;;;47.90;2.70;;;;;;5022264;28;20501;-69
2022/03/03 10:53:58;;;;;;;9.50;8.57;;;47.90;2.10;;;;;;5024703;28;20448;-70
2022/03/03 10:56:25;;;;;;;8.90;8.10;;;47.80;2.30;;;;;;5021092;28;20442;-68
2022/03/03 10:58:54;;;;;;;9.43;8.57;;;47.50;2.60;;;;;;5024189;28;20453;-69
2022/03/03 11:01:25;;;;;;;10.77;9.83;;;47.70;2.60;;;;;;5024773;28;20443;-70
2022/03/03 11:03:53;;;;;;;11.30;10.10;;;48.10;2.70;;;;;;5020942;28;20438;-69
2022/03/03 11:06:25;;;;;;;11.37;10.17;;;48.20;2.20;;;;;;5024391;28;20438;-69
2022/03/03 11:08:54;;;;;;;12.10;11.07;;;48.30;2.30;;;;;;5022345;28;20442;-69
2022/03/03 11:11:22;;;;;;;12.60;11.40;;;48.50;2.10;;;;;;5025700;28;20485;-69
2022/03/03 11:13:59;;;;;;;12.53;11.33;;;48.70;2.30;;;;;;5024618;28;20484;-68
2022/03/03 11:16:27;;;;;;;13.17;11.90;;;48.40;2.00;;;;;;5024682;28;20524;-69
2022/03/03 11:18:59;;;;;;;12.23;11.23;;;48.50;2.30;;;;;;5021211;28;20458;-69
2022/03/03 11:21:27;;;;;;;13.10;12.00;;;48.60;2.10;;;;;;5021870;28;20446;-68
2022/03/03 11:23:56;;;;;;;13.93;12.73;;;48.70;2.30;;;;;;5028807;28;20438;-69
2022/03/03 11:26:26;;;;;;;12.43;11.37;;;48.90;2.00;;;;;;5030807;28;20441;-71
2022/03/03 11:29:01;;;;;;;14.63;13.20;;;48.90;1.90;;;;;;5030044;28;20480;-70
2022/03/03 11:31:32;;;;;;;13.53;12.30;;;48.90;1.70;;;;;;5030596;28;20440;-70
2022/03/03 11:34:21;;;;;;;13.50;12.30;;;49.00;1.90;;;;;;5033577;28;20438;-69
2022/03/03 11:36:49;;;;;;;14.93;13.43;;;49.00;1.60;;;;;;5028850;28;20430;-69
2022/03/03 11:39:36;;;;;;;13.67;12.50;;;48.80;1.70;;;;;;5034291;28;20485;-72
2022/03/03 11:42:21;;;;;;;13.70;12.50;;;49.00;1.80;;;;;;5033261;28;20437;-68
2022/03/03 11:44:50;;;;;;;13.60;12.50;;;49.00;2.20;;;;;;5031134;28;20929;-70
2022/03/03 11:47:20;;;;;;;14.67;13.43;;;49.00;2.10;;;;;;5033242;28;20940;-70
2022/03/03 11:50:06;;;;;;;13.47;12.27;;;48.80;1.90;;;;;;5032989;28;20857;-69
2022/03/03 11:52:34;;;;;;;14.60;13.30;;;48.50;1.80;;;;;;5029396;28;21032;-69
2022/03/03 11:55:32;;;;;;;15.27;14.07;;;48.30;1.90;;;;;;5034122;28;20503;-71
2022/03/03 11:58:01;;;;;;;13.10;12.00;;;48.10;2.00;;;;;;5028572;28;20433;-69
2022/03/03 12:00:29;;;;;;;14.03;12.73;;;48.00;1.80;;;;;;5027610;28;20547;-69
2022/03/03 12:03:00;;;;;;;15.30;14.00;;;47.90;1.70;;;;;;5033585;28;20441;-69
2022/03/03 12:05:41;;;;;;;13.20;11.90;;;48.00;1.80;;;;;;5033750;28;20476;-69
2022/03/03 12:08:45;;;;;;;14.93;13.53;;;48.10;2.00;;;;;;5033423;28;20484;-69
2022/03/03 12:11:15;;;;;;;15.17;13.77;;;48.10;1.80;;;;;;5033891;28;20429;-69
2022/03/03 12:13:50;;;;;;;13.30;12.10;;;47.50;1.40;;;;;;5029434;28;20830;-68
2022/03/03 12:16:29;;;;;;;15.20;13.90;;;47.00;1.60;;;;;;5032868;28;20446;-72
2022/03/03 12:19:11;;;;;;;14.93;13.53;;;46.80;1.80;;;;;;5027009;28;20525;-69
2022/03/03 12:21:41;;;;;;;14.60;13.30;;;46.60;1.70;;;;;;5033443;28;20446;-69
2022/03/03 12:24:31;;;;;;;15.10;13.70;;;46.20;1.70;;;;;;5032807;28;20452;-69
2022/03/03 12:27:15;;;;;;;15.40;14.00;;;46.20;1.90;;;;;;5029841;28;20496;-68
2022/03/03 12:29:57;;;;;;;15.57;14.17;;;46.30;2.10;;;;;;5032500;28;20951;-68
2022/03/03 12:32:35;;;;;;;15.83;14.33;;;46.30;1.90;;;;;;5033149;28;20583;-70
2022/03/03 12:35:09;;;;;;;14.80;13.40;;;46.40;1.90;;;;;;5029183;28;20434;-68
2022/03/03 12:37:43;;;;;;;15.97;14.47;;;46.00;1.70;;;;;;5028321;28;20476;-69
2022/03/03 12:40:12;;;;;;;15.53;13.40;;;45.20;2.00;;;;;;5031718;28;20547;-68
2022/03/03 12:42:44;;;;;;;15.47;13.97;;;44.80;2.20;;;;;;5031686;28;20604;-68
2022/03/03 12:45:13;;;;;;;14.77;13.47;;;44.70;1.80;;;;;;5031489;28;20448;-68
2022/03/03 12:47:42;;;;;;;15.57;14.17;;;44.20;2.30;;;;;;5023379;28;20445;-69
2022/03/03 12:50:12;;;;;;;14.47;13.10;;;43.90;2.30;;;;;;5022917;28;20513;-68
2022/03/03 12:52:41;;;;;;;13.40;12.13;;;43.50;2.90;;;;;;5033220;28;20441;-68
2022/03/03 12:55:10;;;;;;;16.30;14.90;;;43.10;2.90;;;;;;5031578;28;21243;-69